Kezdőlap
METAR-TAF:

METAR-TAF

Repülőterek :

Szunani nemzetközi repülőtér

Phenjan, Észak-Korea

földrajzi szélesség: 39-02N, földrajzi hosszúság: 125-47E, magasság: 36 m

METAR: hiányzik

Idő: 01:45 (17:15 UTC)

Előrejelzés

A jelentés 12 órával és 55 perccel ezelõtt készült, 04:20 UTC
Az előrejelzés 17-én 06 óra UTC és 18-én 06 óra UTC között érvényes
Keleti szél 6 kt
Látótávolság 10 km, vagy több
felhőtlen 1500 m magasságban, és nincs gomolyfelhõ

TAF: ZKPY 170420Z 1706/1806 10003MPS CAVOK TX31/1706Z TN21/1721Z

Meteorológiai megfigyelések és előrejelzések több, mint 4000 repülőtéren (METAR és TAF jelentéseket).

A térképen piros és sárga pontok jelzik az elérhető meteorológiai állomásokat.

Mozgassa az egeret a pont fölött, hogy megjelenjen az állomás neve.

Azután kattintson az időjárási megfigyelések és előrejelzések megtekintéséhez.

A térkép megváltoztatása: kattintson a fekete keresztel jelölt zöld gombra ráközelítéshez, a vonallal jelölt zöld gombra távolításhoz, vagy a zöld nyilakra a szomszédos térképek eléréséhez.


METAR-TAF: